createdAt,value
2023-02-23T00:02:06.783Z,21.52
2023-02-23T00:04:35.286Z,13.75
2023-02-23T00:07:03.037Z,15.13
2023-02-23T00:09:35.984Z,14.10
2023-02-23T00:12:08.406Z,14.88
2023-02-23T00:14:38.616Z,16.35
2023-02-23T00:17:14.537Z,16.70
2023-02-23T00:19:43.921Z,17.00
2023-02-23T00:22:12.030Z,14.10
2023-02-23T00:24:40.702Z,16.20
2023-02-23T00:27:07.957Z,13.75
2023-02-23T00:29:39.645Z,13.35
2023-02-23T00:32:07.468Z,14.52
2023-02-23T00:34:36.897Z,14.95
2023-02-23T00:37:04.586Z,16.13
2023-02-23T00:39:31.910Z,16.83
2023-02-23T00:42:03.226Z,13.00
2023-02-23T00:44:31.994Z,20.90
2023-02-23T00:46:59.130Z,14.63
2023-02-23T00:49:26.939Z,15.00
2023-02-23T00:51:54.340Z,16.85
2023-02-23T00:54:22.288Z,14.25
2023-02-23T00:56:50.146Z,16.85
2023-02-23T00:59:17.711Z,15.80
2023-02-23T01:01:45.192Z,17.50
2023-02-23T01:04:13.426Z,14.75
2023-02-23T01:06:42.234Z,16.23
2023-02-23T01:09:16.169Z,13.75
2023-02-23T01:11:46.995Z,19.60
2023-02-23T01:14:15.215Z,16.40
2023-02-23T01:16:42.435Z,16.27
2023-02-23T01:19:11.048Z,15.50
2023-02-23T01:21:42.247Z,14.10
2023-02-23T01:24:10.048Z,14.25
2023-02-23T01:26:39.983Z,20.55
2023-02-23T01:29:15.188Z,18.88
2023-02-23T01:31:45.196Z,17.65
2023-02-23T01:34:14.473Z,13.93
2023-02-23T01:36:43.950Z,15.68
2023-02-23T01:39:17.421Z,17.63
2023-02-23T01:41:45.464Z,15.93
2023-02-23T01:44:12.820Z,22.23
2023-02-23T01:46:47.571Z,15.13
2023-02-23T01:49:28.485Z,16.27
2023-02-23T01:51:59.225Z,13.65
2023-02-23T01:54:32.038Z,14.07
2023-02-23T01:59:41.758Z,16.30
2023-02-23T02:02:09.527Z,14.05
2023-02-23T02:04:46.576Z,18.33
2023-02-23T02:07:16.663Z,14.07
2023-02-23T02:10:07.229Z,13.07
2023-02-23T02:12:34.556Z,16.17
2023-02-23T02:15:04.999Z,13.55
2023-02-23T02:17:51.462Z,14.60
2023-02-23T02:20:32.842Z,18.80
2023-02-23T02:23:10.720Z,17.65
2023-02-23T02:25:38.593Z,13.50
2023-02-23T02:28:24.006Z,15.63
2023-02-23T02:31:03.490Z,12.35
2023-02-23T02:33:58.417Z,10.40
2023-02-23T02:37:14.676Z,16.38
2023-02-23T02:40:15.152Z,17.00
2023-02-23T02:43:12.581Z,12.85
2023-02-23T02:46:13.318Z,11.82
2023-02-23T02:48:45.338Z,14.73
2023-02-23T02:51:28.705Z,16.63
2023-02-23T02:54:12.259Z,11.07
2023-02-23T02:56:43.195Z,10.85
2023-02-23T02:59:32.814Z,16.17
2023-02-23T03:02:18.617Z,14.30
2023-02-23T03:05:04.807Z,12.15
2023-02-23T03:07:54.080Z,19.80
2023-02-23T03:11:03.290Z,16.73
2023-02-23T03:14:30.349Z,18.30
2023-02-23T03:17:41.483Z,14.57
2023-02-23T03:20:36.198Z,17.05
2023-02-23T03:23:42.331Z,14.45
2023-02-23T03:26:44.499Z,16.38
2023-02-23T03:29:57.799Z,13.95
2023-02-23T03:33:02.423Z,13.87
2023-02-23T03:36:07.471Z,16.35
2023-02-23T03:39:19.955Z,17.13
2023-02-23T03:42:08.698Z,15.10
2023-02-23T03:45:03.874Z,15.15
2023-02-23T03:47:55.416Z,17.23
2023-02-23T03:50:59.260Z,17.35
2023-02-23T03:54:02.800Z,19.27
2023-02-23T03:56:52.626Z,16.30
2023-02-23T03:59:44.818Z,15.85
2023-02-23T04:02:33.457Z,12.10
2023-02-23T04:05:24.134Z,18.90
2023-02-23T04:08:12.138Z,15.98
2023-02-23T04:11:07.207Z,18.92
2023-02-23T04:13:37.773Z,20.85
2023-02-23T04:16:06.570Z,16.00
2023-02-23T04:18:36.928Z,25.13
2023-02-23T04:21:05.355Z,19.40
2023-02-23T04:23:33.209Z,22.67
2023-02-23T04:26:00.254Z,18.35
2023-02-23T04:28:29.314Z,17.77
2023-02-23T04:30:56.539Z,20.48
2023-02-23T04:33:25.686Z,20.75
2023-02-23T04:35:54.207Z,23.42
2023-02-23T04:38:22.090Z,20.20
2023-02-23T04:40:49.401Z,16.95
2023-02-23T04:43:16.728Z,13.23
2023-02-23T04:45:45.607Z,17.48
2023-02-23T04:48:12.770Z,17.33
2023-02-23T04:50:40.222Z,17.77
2023-02-23T04:53:10.563Z,20.27
2023-02-23T04:55:38.118Z,18.30
2023-02-23T04:58:05.399Z,18.67
2023-02-23T05:00:34.251Z,17.13
2023-02-23T05:03:01.515Z,27.95
2023-02-23T05:05:28.827Z,19.30
2023-02-23T05:07:56.485Z,20.40
2023-02-23T05:10:24.227Z,16.38
2023-02-23T05:12:51.725Z,15.73
2023-02-23T05:15:18.894Z,14.77
2023-02-23T05:17:46.279Z,20.50
2023-02-23T05:20:14.493Z,16.40
2023-02-23T05:22:42.873Z,17.63
2023-02-23T05:25:10.441Z,19.65
2023-02-23T05:27:37.789Z,15.38
2023-02-23T05:30:07.942Z,15.48
2023-02-23T05:32:35.341Z,15.43
2023-02-23T05:35:03.183Z,17.45
2023-02-23T05:37:33.513Z,17.80
2023-02-23T05:40:00.695Z,12.63
2023-02-23T05:42:27.763Z,15.40
2023-02-23T05:44:55.021Z,19.25
2023-02-23T05:47:22.079Z,22.08
2023-02-23T05:49:49.203Z,20.10
2023-02-23T05:52:16.267Z,17.58
2023-02-23T05:54:43.487Z,15.27
2023-02-23T05:57:10.536Z,24.70
2023-02-23T05:59:37.645Z,19.25
2023-02-23T06:02:06.234Z,16.25
2023-02-23T06:04:33.834Z,19.27
2023-02-23T06:07:00.972Z,18.50
2023-02-23T06:09:28.119Z,20.60
2023-02-23T06:11:55.271Z,22.52
2023-02-23T06:14:22.401Z,15.90
2023-02-23T06:16:49.527Z,16.55
2023-02-23T06:19:16.796Z,19.40
2023-02-23T06:21:43.813Z,27.10
2023-02-23T06:24:12.362Z,18.95
2023-02-23T06:26:39.621Z,20.38
2023-02-23T06:29:06.682Z,21.13
2023-02-23T06:31:33.907Z,16.42
2023-02-23T06:34:01.070Z,18.92
2023-02-23T06:36:28.514Z,18.52
2023-02-23T06:38:59.743Z,17.70
2023-02-23T06:41:27.295Z,21.00
2023-02-23T06:43:54.416Z,23.63
2023-02-23T06:46:22.174Z,18.95
2023-02-23T06:48:49.327Z,17.52
2023-02-23T06:51:16.472Z,21.35
2023-02-23T06:53:43.514Z,22.42
2023-02-23T06:56:12.447Z,18.95
2023-02-23T06:58:40.936Z,17.20
2023-02-23T07:01:08.104Z,15.60
2023-02-23T07:03:35.280Z,18.73
2023-02-23T07:06:05.801Z,17.20
2023-02-23T07:08:34.741Z,20.27
2023-02-23T07:11:14.081Z,20.13
2023-02-23T07:13:42.625Z,18.02
2023-02-23T07:16:10.011Z,14.32
2023-02-23T07:18:37.165Z,15.20
2023-02-23T07:21:04.498Z,20.33
2023-02-23T07:23:31.958Z,25.27
2023-02-23T07:26:01.078Z,14.68
2023-02-23T07:28:28.946Z,21.42
2023-02-23T07:30:59.374Z,17.95
2023-02-23T07:33:26.696Z,17.40
2023-02-23T07:35:53.751Z,22.83
2023-02-23T07:38:20.876Z,18.85
2023-02-23T07:40:50.620Z,14.40
2023-02-23T07:43:17.827Z,16.35
2023-02-23T07:45:46.571Z,17.73
2023-02-23T07:48:14.129Z,16.55
2023-02-23T07:50:42.538Z,13.50
2023-02-23T07:53:12.636Z,13.07
2023-02-23T07:55:41.261Z,16.58
2023-02-23T07:58:09.045Z,16.27
2023-02-23T08:00:40.156Z,18.00
2023-02-23T08:03:07.905Z,17.42
2023-02-23T08:05:36.358Z,16.65
2023-02-23T08:08:03.560Z,12.68
2023-02-23T08:10:31.068Z,12.18
2023-02-23T08:12:58.739Z,16.27
2023-02-23T08:15:25.877Z,17.00
2023-02-23T08:17:53.005Z,16.88
2023-02-23T08:20:20.253Z,19.77
2023-02-23T08:22:49.930Z,21.88
2023-02-23T08:25:18.122Z,17.70
2023-02-23T08:27:45.709Z,16.63
2023-02-23T08:30:14.399Z,17.95
2023-02-23T08:32:42.388Z,15.57
2023-02-23T08:35:10.900Z,17.17
2023-02-23T08:37:37.973Z,19.20
2023-02-23T08:40:05.936Z,17.58
2023-02-23T08:42:33.091Z,14.27
2023-02-23T08:45:01.549Z,16.42
2023-02-23T08:47:30.006Z,15.27
2023-02-23T08:49:57.123Z,15.02
2023-02-23T08:52:25.469Z,13.32
2023-02-23T08:54:52.695Z,14.60
2023-02-23T08:57:20.050Z,16.40
2023-02-23T08:59:47.672Z,17.02
2023-02-23T09:02:15.495Z,15.75
2023-02-23T09:04:43.066Z,14.95
2023-02-23T09:07:14.886Z,14.25
2023-02-23T09:09:41.979Z,16.70
2023-02-23T09:12:09.171Z,14.93
2023-02-23T09:14:36.897Z,13.27
2023-02-23T09:17:04.559Z,13.60
2023-02-23T09:19:31.815Z,15.43
2023-02-23T09:21:58.935Z,14.23
2023-02-23T09:24:26.189Z,19.52
2023-02-23T09:26:53.881Z,12.02
2023-02-23T09:29:21.257Z,13.07
2023-02-23T09:31:48.444Z,13.80
2023-02-23T09:34:15.699Z,17.70
2023-02-23T09:36:42.708Z,14.45
2023-02-23T09:39:09.838Z,9.00
2023-02-23T09:42:08.498Z,11.25
2023-02-23T09:44:50.919Z,18.55
2023-02-23T09:47:21.274Z,13.27
2023-02-23T09:49:50.187Z,15.43
2023-02-23T09:52:22.449Z,11.65
2023-02-23T09:54:49.919Z,13.07
2023-02-23T09:57:34.006Z,12.70
2023-02-23T10:00:01.208Z,10.60
2023-02-23T10:02:39.891Z,15.07
2023-02-23T10:05:12.509Z,13.07
2023-02-23T10:07:42.521Z,18.63
2023-02-23T10:10:28.041Z,12.15
2023-02-23T10:13:22.351Z,14.25
2023-02-23T10:15:56.083Z,10.85
2023-02-23T10:18:50.353Z,13.25
2023-02-23T10:21:40.343Z,11.77
2023-02-23T10:24:11.744Z,11.90
2023-02-23T10:26:49.826Z,14.85
2023-02-23T10:29:29.064Z,12.30
2023-02-23T10:32:33.823Z,11.55
2023-02-23T10:35:01.604Z,13.02
2023-02-23T10:37:28.789Z,12.57
2023-02-23T10:39:55.938Z,15.73
2023-02-23T10:42:29.217Z,16.60
2023-02-23T10:44:58.930Z,24.25
2023-02-23T10:47:33.421Z,14.98
2023-02-23T10:50:01.067Z,13.82
2023-02-23T10:52:41.873Z,15.52
2023-02-23T10:55:27.417Z,13.30
2023-02-23T10:58:19.189Z,15.93
2023-02-23T11:01:06.819Z,11.43
2023-02-23T11:03:48.344Z,11.25
2023-02-23T11:06:36.135Z,12.23
2023-02-23T11:09:43.742Z,13.85
2023-02-23T11:12:25.519Z,16.35
2023-02-23T11:14:55.062Z,10.52
2023-02-23T11:17:37.030Z,12.38
2023-02-23T11:20:18.552Z,9.80
2023-02-23T11:22:46.244Z,9.95
2023-02-23T11:25:29.659Z,16.23
2023-02-23T11:27:58.289Z,10.02
2023-02-23T11:30:34.473Z,11.07
2023-02-23T11:33:10.750Z,11.77
2023-02-23T11:35:39.465Z,11.52
2023-02-23T11:38:24.709Z,11.63
2023-02-23T11:41:07.350Z,12.60
2023-02-23T11:43:36.249Z,14.07
2023-02-23T11:46:04.237Z,11.85
2023-02-23T11:48:55.278Z,14.93
2023-02-23T11:51:33.726Z,10.48
2023-02-23T11:54:04.055Z,11.52
2023-02-23T11:56:34.655Z,14.52
2023-02-23T11:59:14.029Z,13.88
2023-02-23T12:01:52.937Z,13.73
2023-02-23T12:04:41.409Z,11.52
2023-02-23T12:07:41.924Z,12.77
2023-02-23T12:10:21.426Z,12.55
2023-02-23T12:12:57.320Z,14.75
2023-02-23T12:15:34.894Z,11.38
2023-02-23T12:18:11.885Z,13.48
2023-02-23T12:20:44.119Z,11.35
2023-02-23T12:23:15.890Z,11.68
2023-02-23T12:25:51.779Z,10.63
2023-02-23T12:28:36.568Z,11.02
2023-02-23T12:31:42.610Z,13.25
2023-02-23T12:34:15.837Z,11.07
2023-02-23T12:36:50.550Z,13.60
2023-02-23T12:39:33.482Z,9.68
2023-02-23T12:44:43.660Z,13.60
2023-02-23T12:47:44.763Z,16.48
2023-02-23T12:50:33.870Z,10.88
2023-02-23T12:53:12.613Z,10.98
2023-02-23T12:55:54.750Z,13.23
2023-02-23T12:58:21.840Z,12.80
2023-02-23T13:00:55.756Z,12.98
2023-02-23T13:03:37.270Z,11.75
2023-02-23T13:06:47.757Z,10.45
2023-02-23T13:09:27.036Z,10.18
2023-02-23T13:12:08.228Z,15.30
2023-02-23T13:14:48.277Z,18.13
2023-02-23T13:17:36.979Z,60.60
2023-02-23T13:20:20.730Z,33.33
2023-02-23T13:23:01.451Z,21.70
2023-02-23T13:25:52.174Z,78.35
2023-02-23T13:28:28.315Z,15.80
2023-02-23T13:30:57.460Z,13.50
2023-02-23T13:33:43.280Z,11.38
2023-02-23T13:36:13.183Z,18.23
2023-02-23T13:39:01.304Z,26.45
2023-02-23T13:41:48.285Z,12.15
2023-02-23T13:44:49.624Z,26.17
2023-02-23T13:47:46.038Z,13.18
2023-02-23T13:50:47.470Z,13.65
2023-02-23T13:53:34.906Z,12.70
2023-02-23T13:56:10.601Z,12.77
2023-02-23T13:58:45.676Z,10.77
2023-02-23T14:01:36.991Z,11.48
2023-02-23T14:04:14.520Z,9.48
2023-02-23T14:06:58.454Z,11.90
2023-02-23T14:09:31.928Z,13.77
2023-02-23T14:12:11.416Z,20.55
2023-02-23T14:14:42.381Z,12.88
2023-02-23T14:17:35.443Z,11.43
2023-02-23T14:23:22.160Z,12.27
2023-02-23T14:26:15.365Z,48.08
2023-02-23T14:31:16.090Z,49.65
2023-02-23T14:33:43.343Z,62.08
2023-02-23T14:36:22.705Z,20.70
2023-02-23T14:39:26.010Z,15.52
2023-02-23T14:44:30.896Z,14.77
2023-02-23T14:47:19.019Z,12.95
2023-02-23T14:49:50.430Z,39.53
2023-02-23T14:52:29.941Z,66.78
2023-02-23T14:55:28.980Z,45.67
2023-02-23T14:57:58.236Z,25.13
2023-02-23T15:00:29.028Z,16.45
2023-02-23T15:03:16.806Z,20.35
2023-02-23T15:05:59.806Z,13.80
2023-02-23T15:08:31.824Z,22.25
2023-02-23T15:11:11.551Z,37.88
2023-02-23T15:13:42.714Z,16.40
2023-02-23T15:16:29.511Z,11.95
2023-02-23T15:19:35.085Z,11.38
2023-02-23T15:22:06.134Z,12.10
2023-02-23T15:24:47.705Z,15.32
2023-02-23T15:27:24.783Z,18.42
2023-02-23T15:29:52.418Z,51.75
2023-02-23T15:32:24.989Z,26.50
2023-02-23T15:35:03.728Z,50.65
2023-02-23T15:37:40.255Z,78.13
2023-02-23T15:40:16.576Z,220.32
2023-02-23T15:42:51.568Z,404.05
2023-02-23T15:45:36.549Z,323.35
2023-02-23T15:48:21.442Z,134.30
2023-02-23T15:50:53.932Z,51.15
2023-02-23T15:53:24.589Z,53.33
2023-02-23T15:55:56.082Z,47.95
2023-02-23T15:58:31.367Z,15.60
2023-02-23T16:01:08.985Z,11.32
2023-02-23T16:03:39.387Z,14.63
2023-02-23T16:06:21.396Z,17.42
2023-02-23T16:09:02.498Z,14.10
2023-02-23T16:11:37.907Z,17.77
2023-02-23T16:14:06.927Z,14.50
2023-02-23T16:16:35.943Z,18.45
2023-02-23T16:19:05.157Z,13.65
2023-02-23T16:21:33.268Z,16.98
2023-02-23T16:24:06.639Z,20.00
2023-02-23T16:26:44.262Z,16.08
2023-02-23T16:29:19.957Z,21.05
2023-02-23T16:31:52.193Z,24.05
2023-02-23T16:34:34.703Z,27.10
2023-02-23T16:37:26.303Z,31.30
2023-02-23T16:39:56.086Z,55.72
2023-02-23T16:42:30.897Z,34.65
2023-02-23T16:45:00.765Z,35.55
2023-02-23T16:47:41.171Z,33.22
2023-02-23T16:50:20.304Z,31.75
2023-02-23T16:52:53.563Z,34.15
2023-02-23T16:55:26.173Z,33.15
2023-02-23T16:58:02.729Z,42.13
2023-02-23T17:00:33.316Z,44.78
2023-02-23T17:03:01.062Z,45.22
2023-02-23T17:05:29.340Z,41.38
2023-02-23T17:07:59.331Z,42.17
2023-02-23T17:10:31.856Z,35.10
2023-02-23T17:13:03.612Z,39.38
2023-02-23T17:15:35.172Z,45.75
2023-02-23T17:18:03.996Z,46.57
2023-02-23T17:20:33.048Z,51.08
2023-02-23T17:23:02.151Z,64.93
2023-02-23T17:25:30.269Z,89.75
2023-02-23T17:28:00.263Z,114.85
2023-02-23T17:30:30.305Z,109.28
2023-02-23T17:32:59.267Z,104.85
2023-02-23T17:35:27.697Z,94.13
2023-02-23T17:37:55.819Z,88.93
2023-02-23T17:40:35.008Z,85.03
2023-02-23T17:43:06.589Z,80.43
2023-02-23T17:45:35.496Z,77.20
2023-02-23T17:48:03.513Z,78.85
2023-02-23T17:50:31.236Z,76.32
2023-02-23T17:52:59.343Z,79.72
2023-02-23T17:55:27.232Z,78.03
2023-02-23T17:57:55.287Z,104.43
2023-02-23T18:00:24.335Z,97.70
2023-02-23T18:02:52.585Z,103.40
2023-02-23T18:05:22.028Z,92.40
2023-02-23T18:07:51.149Z,86.72
2023-02-23T18:10:22.022Z,82.00
2023-02-23T18:12:52.554Z,89.38
2023-02-23T18:15:21.976Z,86.90
2023-02-23T18:17:50.948Z,87.85
2023-02-23T18:20:19.157Z,90.55
2023-02-23T18:22:47.312Z,83.68
2023-02-23T18:25:44.709Z,89.82
2023-02-23T18:28:14.040Z,91.40
2023-02-23T18:30:42.660Z,81.57
2023-02-23T18:33:11.919Z,85.40
2023-02-23T18:35:46.808Z,82.50
2023-02-23T18:38:16.972Z,93.95
2023-02-23T18:40:45.816Z,95.03
2023-02-23T18:43:15.902Z,94.15
2023-02-23T18:45:44.373Z,109.72
2023-02-23T18:48:13.996Z,118.35
2023-02-23T18:50:42.274Z,114.95
2023-02-23T18:53:11.413Z,115.78
2023-02-23T18:55:40.434Z,105.65
2023-02-23T18:58:09.008Z,112.85
2023-02-23T19:00:43.243Z,107.72
2023-02-23T19:03:13.528Z,101.40
2023-02-23T19:05:53.479Z,95.38
2023-02-23T19:08:22.492Z,92.95
2023-02-23T19:10:53.100Z,92.07
2023-02-23T19:13:23.195Z,96.45
2023-02-23T19:15:53.997Z,97.65
2023-02-23T19:18:24.528Z,89.80
2023-02-23T19:20:54.197Z,87.05
2023-02-23T19:23:22.781Z,81.82
2023-02-23T19:25:52.145Z,83.90
2023-02-23T19:28:20.868Z,76.93
2023-02-23T19:30:50.721Z,61.78
2023-02-23T19:33:20.801Z,58.75
2023-02-23T19:35:49.504Z,60.90
2023-02-23T19:38:17.869Z,48.63
2023-02-23T19:40:47.410Z,48.50
2023-02-23T19:43:15.358Z,39.00
2023-02-23T19:45:46.811Z,41.88
2023-02-23T19:48:17.387Z,41.67
2023-02-23T19:50:50.059Z,32.05
2023-02-23T19:53:18.250Z,32.70
2023-02-23T19:55:48.043Z,35.28
2023-02-23T19:58:17.334Z,36.60
2023-02-23T20:00:47.664Z,34.30
2023-02-23T20:03:20.479Z,36.13
2023-02-23T20:08:19.551Z,44.67
2023-02-23T20:10:47.610Z,34.65
2023-02-23T20:13:16.730Z,36.08
2023-02-23T20:15:45.892Z,35.30
2023-02-23T20:18:16.624Z,33.88
2023-02-23T20:20:47.345Z,41.08
2023-02-23T20:23:17.545Z,39.42
2023-02-23T20:25:46.268Z,44.50
2023-02-23T20:28:14.210Z,38.90
2023-02-23T20:30:47.803Z,43.58
2023-02-23T20:33:18.957Z,39.22
2023-02-23T20:35:47.207Z,36.50
2023-02-23T20:38:16.848Z,40.85
2023-02-23T20:40:45.562Z,36.03
2023-02-23T20:43:13.446Z,33.38
2023-02-23T20:45:42.212Z,38.10
2023-02-23T20:48:10.416Z,39.08
2023-02-23T20:50:39.086Z,40.97
2023-02-23T20:53:08.865Z,36.97
2023-02-23T20:55:37.500Z,39.40
2023-02-23T20:58:07.095Z,37.55
2023-02-23T21:00:35.126Z,33.15
2023-02-23T21:03:05.138Z,34.40
2023-02-23T21:05:39.237Z,33.13
2023-02-23T21:08:09.171Z,32.90
2023-02-23T21:10:39.638Z,30.75
2023-02-23T21:13:11.416Z,35.65
2023-02-23T21:15:41.467Z,33.38
2023-02-23T21:18:10.875Z,25.25
2023-02-23T21:20:41.755Z,25.33
2023-02-23T21:23:10.511Z,31.33
2023-02-23T21:25:39.218Z,27.60
2023-02-23T21:28:07.365Z,26.00
2023-02-23T21:30:34.828Z,28.15
2023-02-23T21:33:04.425Z,25.50
2023-02-23T21:35:31.836Z,27.98
2023-02-23T21:37:59.481Z,29.77
2023-02-23T21:40:27.204Z,28.75
2023-02-23T21:42:54.847Z,31.50
2023-02-23T21:45:22.911Z,28.15
2023-02-23T21:47:50.462Z,30.80
2023-02-23T21:50:19.617Z,29.27
2023-02-23T21:52:48.861Z,30.92
2023-02-23T21:55:24.634Z,28.88
2023-02-23T21:57:52.433Z,29.85
2023-02-23T22:00:21.171Z,29.90
2023-02-23T22:02:49.355Z,30.85
2023-02-23T22:05:18.305Z,26.98
2023-02-23T22:07:54.635Z,34.50
2023-02-23T22:10:24.651Z,29.70
2023-02-23T22:12:56.083Z,34.75
2023-02-23T22:15:27.823Z,26.00
2023-02-23T22:17:56.036Z,27.45
2023-02-23T22:20:23.307Z,28.95
2023-02-23T22:22:53.088Z,22.80
2023-02-23T22:25:20.854Z,24.95
2023-02-23T22:27:48.288Z,28.63
2023-02-23T22:30:16.135Z,26.38
2023-02-23T22:32:44.004Z,26.10
2023-02-23T22:35:11.354Z,29.35
2023-02-23T22:37:39.205Z,27.02
2023-02-23T22:40:16.892Z,27.40
2023-02-23T22:42:48.324Z,25.45
2023-02-23T22:45:16.401Z,26.13
2023-02-23T22:47:43.616Z,23.42
2023-02-23T22:50:15.619Z,25.40
2023-02-23T22:52:43.179Z,24.03
2023-02-23T22:55:11.280Z,24.45
2023-02-23T22:57:39.999Z,24.50
2023-02-23T23:00:12.690Z,21.98
2023-02-23T23:05:07.594Z,17.40
2023-02-23T23:07:34.744Z,21.65
2023-02-23T23:10:05.837Z,19.45
2023-02-23T23:12:34.663Z,17.05
2023-02-23T23:15:03.483Z,22.02
2023-02-23T23:17:31.495Z,25.08
2023-02-23T23:20:00.425Z,31.42
2023-02-23T23:22:28.162Z,38.35
2023-02-23T23:24:57.143Z,40.28
2023-02-23T23:27:24.892Z,35.00
2023-02-23T23:29:51.932Z,23.30
2023-02-23T23:32:19.438Z,28.20
2023-02-23T23:34:48.234Z,30.52
2023-02-23T23:37:17.273Z,23.90
2023-02-23T23:39:45.103Z,26.63
2023-02-23T23:42:12.322Z,19.77
2023-02-23T23:44:39.505Z,19.38
2023-02-23T23:47:06.586Z,16.98
2023-02-23T23:49:39.244Z,24.00
2023-02-23T23:52:06.707Z,21.73
2023-02-23T23:54:39.341Z,23.45
2023-02-23T23:59:35.500Z,15.73
